sensor_id;sensor_type;location;lat;lon;timestamp;P1;durP1;ratioP1;P2;durP2;ratioP2
41275;SDS011;27010;47.718;12.912;2022-08-01T00:01:40;2.53;;;1.80;;
41275;SDS011;27010;47.718;12.912;2022-08-01T00:04:42;1.85;;;1.75;;
41275;SDS011;27010;47.718;12.912;2022-08-01T00:07:45;2.85;;;2.25;;
41275;SDS011;27010;47.718;12.912;2022-08-01T00:11:00;4.03;;;2.13;;
41275;SDS011;27010;47.718;12.912;2022-08-01T00:14:13;2.35;;;2.03;;
41275;SDS011;27010;47.718;12.912;2022-08-01T00:17:15;1.60;;;1.50;;
41275;SDS011;27010;47.718;12.912;2022-08-01T00:20:17;2.83;;;1.92;;
41275;SDS011;27010;47.718;12.912;2022-08-01T00:23:25;3.25;;;1.92;;
41275;SDS011;27010;47.718;12.912;2022-08-01T00:26:27;2.20;;;1.67;;
41275;SDS011;27010;47.718;12.912;2022-08-01T00:29:29;2.15;;;1.77;;
41275;SDS011;27010;47.718;12.912;2022-08-01T00:33:00;2.03;;;1.85;;
41275;SDS011;27010;47.718;12.912;2022-08-01T00:36:03;1.88;;;1.55;;
41275;SDS011;27010;47.718;12.912;2022-08-01T00:39:06;2.55;;;1.70;;
41275;SDS011;27010;47.718;12.912;2022-08-01T00:42:08;2.13;;;1.92;;
41275;SDS011;27010;47.718;12.912;2022-08-01T00:45:12;4.05;;;2.28;;
41275;SDS011;27010;47.718;12.912;2022-08-01T00:48:14;3.40;;;2.33;;
41275;SDS011;27010;47.718;12.912;2022-08-01T00:51:16;2.22;;;1.80;;
41275;SDS011;27010;47.718;12.912;2022-08-01T00:54:18;4.20;;;2.40;;
41275;SDS011;27010;47.718;12.912;2022-08-01T00:57:20;2.65;;;2.42;;
41275;SDS011;27010;47.718;12.912;2022-08-01T01:00:43;2.40;;;2.20;;
41275;SDS011;27010;47.718;12.912;2022-08-01T01:03:54;2.60;;;2.05;;
41275;SDS011;27010;47.718;12.912;2022-08-01T01:14:00;2.93;;;2.40;;
41275;SDS011;27010;47.718;12.912;2022-08-01T01:17:06;3.60;;;2.20;;
41275;SDS011;27010;47.718;12.912;2022-08-01T01:20:11;3.47;;;2.13;;
41275;SDS011;27010;47.718;12.912;2022-08-01T01:23:24;3.00;;;2.20;;
41275;SDS011;27010;47.718;12.912;2022-08-01T01:30:14;2.50;;;2.03;;
41275;SDS011;27010;47.718;12.912;2022-08-01T01:33:10;2.40;;;1.90;;
41275;SDS011;27010;47.718;12.912;2022-08-01T01:36:13;5.23;;;2.23;;
41275;SDS011;27010;47.718;12.912;2022-08-01T01:39:16;2.60;;;2.13;;
41275;SDS011;27010;47.718;12.912;2022-08-01T01:42:19;3.20;;;2.10;;
41275;SDS011;27010;47.718;12.912;2022-08-01T01:45:25;3.33;;;2.20;;
41275;SDS011;27010;47.718;12.912;2022-08-01T01:48:27;3.50;;;2.07;;
41275;SDS011;27010;47.718;12.912;2022-08-01T01:51:30;4.23;;;1.77;;
41275;SDS011;27010;47.718;12.912;2022-08-01T01:54:35;3.93;;;2.20;;
41275;SDS011;27010;47.718;12.912;2022-08-01T01:57:40;4.87;;;2.47;;
41275;SDS011;27010;47.718;12.912;2022-08-01T02:00:43;5.83;;;2.20;;
41275;SDS011;27010;47.718;12.912;2022-08-01T02:03:47;6.63;;;2.00;;
41275;SDS011;27010;47.718;12.912;2022-08-01T02:06:50;4.20;;;2.03;;
41275;SDS011;27010;47.718;12.912;2022-08-01T02:09:53;4.53;;;2.40;;
41275;SDS011;27010;47.718;12.912;2022-08-01T02:12:57;2.43;;;1.87;;
41275;SDS011;27010;47.718;12.912;2022-08-01T02:16:05;3.70;;;2.30;;
41275;SDS011;27010;47.718;12.912;2022-08-01T02:19:08;2.87;;;1.80;;
41275;SDS011;27010;47.718;12.912;2022-08-01T02:22:19;3.57;;;2.00;;
41275;SDS011;27010;47.718;12.912;2022-08-01T02:25:36;2.53;;;2.23;;
41275;SDS011;27010;47.718;12.912;2022-08-01T02:29:01;2.00;;;1.80;;
41275;SDS011;27010;47.718;12.912;2022-08-01T02:32:06;3.00;;;2.43;;
41275;SDS011;27010;47.718;12.912;2022-08-01T02:35:13;2.73;;;2.00;;
41275;SDS011;27010;47.718;12.912;2022-08-01T02:38:22;3.73;;;1.93;;
41275;SDS011;27010;47.718;12.912;2022-08-01T02:41:26;4.03;;;2.00;;
41275;SDS011;27010;47.718;12.912;2022-08-01T02:44:30;5.33;;;2.10;;
41275;SDS011;27010;47.718;12.912;2022-08-01T02:47:33;3.23;;;2.00;;
41275;SDS011;27010;47.718;12.912;2022-08-01T02:50:38;3.73;;;2.30;;
41275;SDS011;27010;47.718;12.912;2022-08-01T02:53:42;4.07;;;2.40;;
41275;SDS011;27010;47.718;12.912;2022-08-01T02:58:01;5.67;;;2.40;;
41275;SDS011;27010;47.718;12.912;2022-08-01T03:01:04;4.73;;;2.30;;
41275;SDS011;27010;47.718;12.912;2022-08-01T03:04:08;2.30;;;2.10;;
41275;SDS011;27010;47.718;12.912;2022-08-01T03:07:11;6.80;;;2.47;;
41275;SDS011;27010;47.718;12.912;2022-08-01T03:10:17;4.53;;;2.20;;
41275;SDS011;27010;47.718;12.912;2022-08-01T03:13:19;3.63;;;2.40;;
41275;SDS011;27010;47.718;12.912;2022-08-01T03:16:23;3.87;;;2.10;;
41275;SDS011;27010;47.718;12.912;2022-08-01T03:19:26;4.20;;;2.50;;
41275;SDS011;27010;47.718;12.912;2022-08-01T03:22:29;3.73;;;2.87;;
41275;SDS011;27010;47.718;12.912;2022-08-01T03:25:36;4.83;;;2.40;;
41275;SDS011;27010;47.718;12.912;2022-08-01T03:28:40;5.80;;;2.20;;
41275;SDS011;27010;47.718;12.912;2022-08-01T03:31:43;2.60;;;2.40;;
41275;SDS011;27010;47.718;12.912;2022-08-01T03:34:48;4.63;;;2.33;;
41275;SDS011;27010;47.718;12.912;2022-08-01T03:37:51;4.60;;;2.43;;
41275;SDS011;27010;47.718;12.912;2022-08-01T03:41:16;3.73;;;2.37;;
41275;SDS011;27010;47.718;12.912;2022-08-01T03:44:23;2.40;;;2.20;;
41275;SDS011;27010;47.718;12.912;2022-08-01T03:47:29;5.20;;;2.20;;
41275;SDS011;27010;47.718;12.912;2022-08-01T03:50:41;3.33;;;2.60;;
41275;SDS011;27010;47.718;12.912;2022-08-01T03:53:45;8.93;;;2.07;;
41275;SDS011;27010;47.718;12.912;2022-08-01T03:56:48;2.67;;;2.43;;
41275;SDS011;27010;47.718;12.912;2022-08-01T03:59:50;2.80;;;2.40;;
41275;SDS011;27010;47.718;12.912;2022-08-01T04:02:53;4.93;;;2.60;;
41275;SDS011;27010;47.718;12.912;2022-08-01T04:05:55;3.90;;;2.70;;
41275;SDS011;27010;47.718;12.912;2022-08-01T04:08:57;5.60;;;2.67;;
41275;SDS011;27010;47.718;12.912;2022-08-01T04:11:59;2.73;;;2.53;;
41275;SDS011;27010;47.718;12.912;2022-08-01T04:15:12;2.60;;;2.40;;
41275;SDS011;27010;47.718;12.912;2022-08-01T04:18:15;4.13;;;2.53;;
41275;SDS011;27010;47.718;12.912;2022-08-01T04:21:18;4.00;;;2.50;;
41275;SDS011;27010;47.718;12.912;2022-08-01T04:24:25;2.77;;;2.33;;
41275;SDS011;27010;47.718;12.912;2022-08-01T04:27:31;3.07;;;2.50;;
41275;SDS011;27010;47.718;12.912;2022-08-01T04:30:52;3.50;;;2.40;;
41275;SDS011;27010;47.718;12.912;2022-08-01T04:34:02;2.10;;;1.90;;
41275;SDS011;27010;47.718;12.912;2022-08-01T04:37:15;4.07;;;2.40;;
41275;SDS011;27010;47.718;12.912;2022-08-01T04:40:19;3.17;;;2.17;;
41275;SDS011;27010;47.718;12.912;2022-08-01T04:43:25;3.67;;;2.50;;
41275;SDS011;27010;47.718;12.912;2022-08-01T04:46:27;6.93;;;2.27;;
41275;SDS011;27010;47.718;12.912;2022-08-01T04:49:31;3.80;;;2.35;;
41275;SDS011;27010;47.718;12.912;2022-08-01T04:52:50;3.28;;;2.35;;
41275;SDS011;27010;47.718;12.912;2022-08-01T04:56:12;5.60;;;2.35;;
41275;SDS011;27010;47.718;12.912;2022-08-01T04:59:14;5.23;;;2.17;;
41275;SDS011;27010;47.718;12.912;2022-08-01T05:02:42;3.20;;;2.80;;
41275;SDS011;27010;47.718;12.912;2022-08-01T05:05:45;3.57;;;2.40;;
41275;SDS011;27010;47.718;12.912;2022-08-01T05:08:47;2.85;;;2.58;;
41275;SDS011;27010;47.718;12.912;2022-08-01T05:11:49;4.85;;;2.45;;
41275;SDS011;27010;47.718;12.912;2022-08-01T05:14:51;5.30;;;2.03;;
41275;SDS011;27010;47.718;12.912;2022-08-01T05:17:53;2.20;;;2.00;;
41275;SDS011;27010;47.718;12.912;2022-08-01T05:20:56;3.22;;;2.92;;
41275;SDS011;27010;47.718;12.912;2022-08-01T05:23:58;3.65;;;2.90;;
41275;SDS011;27010;47.718;12.912;2022-08-01T05:27:05;4.30;;;2.72;;
41275;SDS011;27010;47.718;12.912;2022-08-01T05:30:12;2.50;;;2.30;;
41275;SDS011;27010;47.718;12.912;2022-08-01T05:33:18;2.53;;;2.33;;
41275;SDS011;27010;47.718;12.912;2022-08-01T05:36:29;4.95;;;2.38;;
41275;SDS011;27010;47.718;12.912;2022-08-01T05:39:51;3.92;;;2.60;;
41275;SDS011;27010;47.718;12.912;2022-08-01T05:42:56;3.17;;;2.53;;
41275;SDS011;27010;47.718;12.912;2022-08-01T05:46:02;3.83;;;2.35;;
41275;SDS011;27010;47.718;12.912;2022-08-01T05:49:04;5.72;;;2.40;;
41275;SDS011;27010;47.718;12.912;2022-08-01T05:52:08;6.00;;;2.58;;
41275;SDS011;27010;47.718;12.912;2022-08-01T05:55:10;4.05;;;2.45;;
41275;SDS011;27010;47.718;12.912;2022-08-01T05:58:22;6.03;;;2.65;;
41275;SDS011;27010;47.718;12.912;2022-08-01T06:02:49;4.03;;;2.50;;
41275;SDS011;27010;47.718;12.912;2022-08-01T06:05:51;3.85;;;2.28;;
41275;SDS011;27010;47.718;12.912;2022-08-01T06:08:54;3.35;;;2.03;;
41275;SDS011;27010;47.718;12.912;2022-08-01T06:11:56;7.28;;;2.50;;
41275;SDS011;27010;47.718;12.912;2022-08-01T06:14:59;4.13;;;2.58;;
41275;SDS011;27010;47.718;12.912;2022-08-01T06:18:01;2.72;;;2.20;;
41275;SDS011;27010;47.718;12.912;2022-08-01T06:21:03;6.07;;;2.45;;
41275;SDS011;27010;47.718;12.912;2022-08-01T06:24:05;5.03;;;2.22;;
41275;SDS011;27010;47.718;12.912;2022-08-01T06:27:07;4.47;;;2.15;;
41275;SDS011;27010;47.718;12.912;2022-08-01T06:30:23;3.70;;;2.20;;
41275;SDS011;27010;47.718;12.912;2022-08-01T06:33:25;3.70;;;2.30;;
41275;SDS011;27010;47.718;12.912;2022-08-01T06:36:28;8.23;;;2.40;;
41275;SDS011;27010;47.718;12.912;2022-08-01T06:39:30;4.70;;;2.92;;
41275;SDS011;27010;47.718;12.912;2022-08-01T06:42:32;6.25;;;2.40;;
41275;SDS011;27010;47.718;12.912;2022-08-01T06:45:37;4.63;;;2.60;;
41275;SDS011;27010;47.718;12.912;2022-08-01T06:48:40;2.72;;;2.33;;
41275;SDS011;27010;47.718;12.912;2022-08-01T06:51:42;7.60;;;2.53;;
41275;SDS011;27010;47.718;12.912;2022-08-01T06:54:44;2.65;;;2.22;;
41275;SDS011;27010;47.718;12.912;2022-08-01T06:57:50;6.43;;;2.10;;
41275;SDS011;27010;47.718;12.912;2022-08-01T07:00:53;4.93;;;1.85;;
41275;SDS011;27010;47.718;12.912;2022-08-01T07:03:58;4.43;;;1.88;;
41275;SDS011;27010;47.718;12.912;2022-08-01T07:07:00;3.70;;;1.95;;
41275;SDS011;27010;47.718;12.912;2022-08-01T07:10:03;5.82;;;2.13;;
41275;SDS011;27010;47.718;12.912;2022-08-01T07:13:05;2.47;;;2.00;;
41275;SDS011;27010;47.718;12.912;2022-08-01T07:16:07;3.70;;;1.92;;
41275;SDS011;27010;47.718;12.912;2022-08-01T07:19:09;3.40;;;2.00;;
41275;SDS011;27010;47.718;12.912;2022-08-01T07:22:12;2.45;;;2.03;;
41275;SDS011;27010;47.718;12.912;2022-08-01T07:25:24;4.47;;;2.00;;
41275;SDS011;27010;47.718;12.912;2022-08-01T07:28:27;4.43;;;1.65;;
41275;SDS011;27010;47.718;12.912;2022-08-01T07:31:29;3.08;;;2.03;;
41275;SDS011;27010;47.718;12.912;2022-08-01T07:34:32;3.30;;;1.60;;
41275;SDS011;27010;47.718;12.912;2022-08-01T07:37:35;2.75;;;2.10;;
41275;SDS011;27010;47.718;12.912;2022-08-01T07:40:49;2.45;;;1.60;;
41275;SDS011;27010;47.718;12.912;2022-08-01T07:43:54;4.60;;;2.13;;
41275;SDS011;27010;47.718;12.912;2022-08-01T07:47:02;3.33;;;1.95;;
41275;SDS011;27010;47.718;12.912;2022-08-01T07:50:05;3.60;;;1.90;;
41275;SDS011;27010;47.718;12.912;2022-08-01T07:53:08;2.55;;;1.75;;
41275;SDS011;27010;47.718;12.912;2022-08-01T07:56:11;2.10;;;1.90;;
41275;SDS011;27010;47.718;12.912;2022-08-01T07:59:13;2.10;;;1.90;;
41275;SDS011;27010;47.718;12.912;2022-08-01T08:02:24;2.13;;;1.63;;
41275;SDS011;27010;47.718;12.912;2022-08-01T08:05:26;3.13;;;1.48;;
41275;SDS011;27010;47.718;12.912;2022-08-01T08:08:48;2.40;;;1.50;;
41275;SDS011;27010;47.718;12.912;2022-08-01T08:11:50;2.90;;;1.58;;
41275;SDS011;27010;47.718;12.912;2022-08-01T08:14:52;4.40;;;1.70;;
41275;SDS011;27010;47.718;12.912;2022-08-01T08:17:55;6.40;;;1.67;;
41275;SDS011;27010;47.718;12.912;2022-08-01T08:20:57;2.42;;;1.55;;
41275;SDS011;27010;47.718;12.912;2022-08-01T08:24:03;3.65;;;1.80;;
41275;SDS011;27010;47.718;12.912;2022-08-01T08:27:27;2.17;;;1.60;;
41275;SDS011;27010;47.718;12.912;2022-08-01T08:30:29;2.85;;;1.80;;
41275;SDS011;27010;47.718;12.912;2022-08-01T08:33:31;5.65;;;1.48;;
41275;SDS011;27010;47.718;12.912;2022-08-01T08:36:33;3.03;;;1.67;;
41275;SDS011;27010;47.718;12.912;2022-08-01T08:39:35;3.05;;;1.52;;
41275;SDS011;27010;47.718;12.912;2022-08-01T08:42:42;2.20;;;1.90;;
41275;SDS011;27010;47.718;12.912;2022-08-01T08:45:44;4.63;;;1.65;;
41275;SDS011;27010;47.718;12.912;2022-08-01T08:49:01;2.25;;;1.80;;
41275;SDS011;27010;47.718;12.912;2022-08-01T08:52:06;2.33;;;1.55;;
41275;SDS011;27010;47.718;12.912;2022-08-01T08:55:09;1.80;;;1.50;;
41275;SDS011;27010;47.718;12.912;2022-08-01T08:58:15;3.53;;;1.27;;
41275;SDS011;27010;47.718;12.912;2022-08-01T09:01:19;1.30;;;1.20;;
41275;SDS011;27010;47.718;12.912;2022-08-01T09:04:23;1.63;;;1.48;;
41275;SDS011;27010;47.718;12.912;2022-08-01T09:07:26;2.28;;;1.60;;
41275;SDS011;27010;47.718;12.912;2022-08-01T09:10:29;3.25;;;1.45;;
41275;SDS011;27010;47.718;12.912;2022-08-01T09:13:32;6.07;;;1.55;;
41275;SDS011;27010;47.718;12.912;2022-08-01T09:16:35;2.17;;;1.55;;
41275;SDS011;27010;47.718;12.912;2022-08-01T09:19:40;2.75;;;1.88;;
41275;SDS011;27010;47.718;12.912;2022-08-01T09:22:43;3.10;;;1.60;;
41275;SDS011;27010;47.718;12.912;2022-08-01T09:25:51;3.03;;;1.55;;
41275;SDS011;27010;47.718;12.912;2022-08-01T09:29:00;3.05;;;1.67;;
41275;SDS011;27010;47.718;12.912;2022-08-01T09:32:06;1.67;;;1.50;;
41275;SDS011;27010;47.718;12.912;2022-08-01T09:35:26;2.30;;;1.25;;
41275;SDS011;27010;47.718;12.912;2022-08-01T09:38:36;3.20;;;1.92;;
41275;SDS011;27010;47.718;12.912;2022-08-01T09:41:38;1.48;;;1.23;;
41275;SDS011;27010;47.718;12.912;2022-08-01T09:44:41;5.28;;;1.75;;
41275;SDS011;27010;47.718;12.912;2022-08-01T09:47:55;3.00;;;1.58;;
41275;SDS011;27010;47.718;12.912;2022-08-01T09:50:58;2.13;;;1.20;;
41275;SDS011;27010;47.718;12.912;2022-08-01T09:54:09;1.40;;;1.27;;
41275;SDS011;27010;47.718;12.912;2022-08-01T10:00:16;3.47;;;1.40;;
41275;SDS011;27010;47.718;12.912;2022-08-01T10:03:39;1.58;;;1.40;;
41275;SDS011;27010;47.718;12.912;2022-08-01T10:06:43;1.83;;;1.55;;
41275;SDS011;27010;47.718;12.912;2022-08-01T10:09:46;2.85;;;1.20;;
41275;SDS011;27010;47.718;12.912;2022-08-01T10:12:49;3.45;;;1.10;;
41275;SDS011;27010;47.718;12.912;2022-08-01T10:15:53;1.10;;;1.00;;
41275;SDS011;27010;47.718;12.912;2022-08-01T10:18:58;1.20;;;1.10;;
41275;SDS011;27010;47.718;12.912;2022-08-01T10:22:04;3.10;;;1.10;;
41275;SDS011;27010;47.718;12.912;2022-08-01T10:25:10;4.53;;;1.27;;
41275;SDS011;27010;47.718;12.912;2022-08-01T10:28:15;1.25;;;1.10;;
41275;SDS011;27010;47.718;12.912;2022-08-01T10:31:24;1.48;;;1.33;;
41275;SDS011;27010;47.718;12.912;2022-08-01T10:34:31;1.63;;;1.20;;
41275;SDS011;27010;47.718;12.912;2022-08-01T10:37:35;2.58;;;1.52;;
41275;SDS011;27010;47.718;12.912;2022-08-01T10:40:53;1.40;;;1.23;;
41275;SDS011;27010;47.718;12.912;2022-08-01T10:43:56;2.40;;;1.30;;
41275;SDS011;27010;47.718;12.912;2022-08-01T10:47:12;3.20;;;1.20;;
41275;SDS011;27010;47.718;12.912;2022-08-01T10:53:33;4.40;;;1.23;;
41275;SDS011;27010;47.718;12.912;2022-08-01T10:56:47;1.27;;;1.17;;
41275;SDS011;27010;47.718;12.912;2022-08-01T10:59:51;3.28;;;1.63;;
41275;SDS011;27010;47.718;12.912;2022-08-01T11:03:02;2.53;;;1.35;;
41275;SDS011;27010;47.718;12.912;2022-08-01T11:06:04;1.50;;;1.35;;
41275;SDS011;27010;47.718;12.912;2022-08-01T11:12:21;3.00;;;1.17;;
41275;SDS011;27010;47.718;12.912;2022-08-01T11:15:44;1.50;;;1.40;;
41275;SDS011;27010;47.718;12.912;2022-08-01T11:18:51;1.88;;;1.20;;
41275;SDS011;27010;47.718;12.912;2022-08-01T11:25:02;1.45;;;1.30;;
41275;SDS011;27010;47.718;12.912;2022-08-01T11:34:17;3.08;;;1.40;;
41275;SDS011;27010;47.718;12.912;2022-08-01T11:37:26;2.17;;;1.55;;
41275;SDS011;27010;47.718;12.912;2022-08-01T11:40:31;3.90;;;1.55;;
41275;SDS011;27010;47.718;12.912;2022-08-01T11:43:33;1.55;;;1.35;;
41275;SDS011;27010;47.718;12.912;2022-08-01T11:53:31;2.45;;;1.55;;
41275;SDS011;27010;47.718;12.912;2022-08-01T11:56:37;1.75;;;1.60;;
41275;SDS011;27010;47.718;12.912;2022-08-01T11:59:52;2.65;;;1.42;;
41275;SDS011;27010;47.718;12.912;2022-08-01T12:03:05;1.50;;;1.40;;
41275;SDS011;27010;47.718;12.912;2022-08-01T12:06:08;2.10;;;1.55;;
41275;SDS011;27010;47.718;12.912;2022-08-01T12:12:22;1.73;;;1.30;;
41275;SDS011;27010;47.718;12.912;2022-08-01T12:15:28;1.67;;;1.40;;
41275;SDS011;27010;47.718;12.912;2022-08-01T12:18:38;1.70;;;1.50;;
41275;SDS011;27010;47.718;12.912;2022-08-01T12:21:41;1.40;;;1.17;;
41275;SDS011;27010;47.718;12.912;2022-08-01T12:24:43;3.97;;;1.40;;
41275;SDS011;27010;47.718;12.912;2022-08-01T12:27:45;3.70;;;1.42;;
41275;SDS011;27010;47.718;12.912;2022-08-01T12:30:54;1.40;;;1.20;;
41275;SDS011;27010;47.718;12.912;2022-08-01T12:33:56;1.42;;;1.30;;
41275;SDS011;27010;47.718;12.912;2022-08-01T12:36:59;1.30;;;1.20;;
41275;SDS011;27010;47.718;12.912;2022-08-01T12:40:14;2.47;;;1.58;;
41275;SDS011;27010;47.718;12.912;2022-08-01T12:43:36;1.30;;;1.20;;
41275;SDS011;27010;47.718;12.912;2022-08-01T12:46:39;1.23;;;1.13;;
41275;SDS011;27010;47.718;12.912;2022-08-01T12:49:45;1.95;;;1.15;;
41275;SDS011;27010;47.718;12.912;2022-08-01T12:52:49;1.45;;;1.20;;
41275;SDS011;27010;47.718;12.912;2022-08-01T12:55:54;1.60;;;1.38;;
41275;SDS011;27010;47.718;12.912;2022-08-01T12:58:59;1.45;;;1.15;;
41275;SDS011;27010;47.718;12.912;2022-08-01T13:02:07;1.60;;;1.20;;
41275;SDS011;27010;47.718;12.912;2022-08-01T13:05:10;1.20;;;1.08;;
41275;SDS011;27010;47.718;12.912;2022-08-01T13:08:13;2.15;;;1.15;;
41275;SDS011;27010;47.718;12.912;2022-08-01T13:11:16;0.95;;;0.93;;
41275;SDS011;27010;47.718;12.912;2022-08-01T13:14:27;2.00;;;1.13;;
41275;SDS011;27010;47.718;12.912;2022-08-01T13:17:32;3.38;;;1.10;;
41275;SDS011;27010;47.718;12.912;2022-08-01T13:20:37;3.03;;;1.27;;
41275;SDS011;27010;47.718;12.912;2022-08-01T13:23:39;1.95;;;1.13;;
41275;SDS011;27010;47.718;12.912;2022-08-01T13:27:03;0.90;;;0.80;;
41275;SDS011;27010;47.718;12.912;2022-08-01T13:30:13;1.08;;;0.90;;
41275;SDS011;27010;47.718;12.912;2022-08-01T13:33:17;1.50;;;1.08;;
41275;SDS011;27010;47.718;12.912;2022-08-01T13:36:19;3.40;;;1.20;;
41275;SDS011;27010;47.718;12.912;2022-08-01T13:39:29;1.20;;;1.10;;
41275;SDS011;27010;47.718;12.912;2022-08-01T13:42:44;3.22;;;1.10;;
41275;SDS011;27010;47.718;12.912;2022-08-01T13:45:46;3.03;;;1.10;;
41275;SDS011;27010;47.718;12.912;2022-08-01T13:48:48;1.30;;;1.00;;
41275;SDS011;27010;47.718;12.912;2022-08-01T13:51:51;2.25;;;1.15;;
41275;SDS011;27010;47.718;12.912;2022-08-01T13:54:53;3.00;;;0.98;;
41275;SDS011;27010;47.718;12.912;2022-08-01T13:57:55;1.17;;;0.90;;
41275;SDS011;27010;47.718;12.912;2022-08-01T14:00:57;0.93;;;0.80;;
41275;SDS011;27010;47.718;12.912;2022-08-01T14:04:00;1.83;;;1.02;;
41275;SDS011;27010;47.718;12.912;2022-08-01T14:07:02;3.53;;;1.23;;
41275;SDS011;27010;47.718;12.912;2022-08-01T14:10:11;3.00;;;0.90;;
41275;SDS011;27010;47.718;12.912;2022-08-01T14:13:20;2.60;;;1.02;;
41275;SDS011;27010;47.718;12.912;2022-08-01T14:16:24;2.67;;;1.05;;
41275;SDS011;27010;47.718;12.912;2022-08-01T14:19:26;2.65;;;1.05;;
41275;SDS011;27010;47.718;12.912;2022-08-01T14:22:39;1.70;;;1.10;;
41275;SDS011;27010;47.718;12.912;2022-08-01T14:25:42;2.03;;;0.90;;
41275;SDS011;27010;47.718;12.912;2022-08-01T14:29:04;1.58;;;1.05;;
41275;SDS011;27010;47.718;12.912;2022-08-01T14:32:06;2.28;;;0.88;;
41275;SDS011;27010;47.718;12.912;2022-08-01T14:35:08;1.63;;;1.00;;
41275;SDS011;27010;47.718;12.912;2022-08-01T14:38:10;3.03;;;1.10;;
41275;SDS011;27010;47.718;12.912;2022-08-01T14:41:22;4.57;;;1.17;;
41275;SDS011;27010;47.718;12.912;2022-08-01T14:44:24;1.00;;;0.90;;
41275;SDS011;27010;47.718;12.912;2022-08-01T14:47:33;2.85;;;0.95;;
41275;SDS011;27010;47.718;12.912;2022-08-01T14:50:36;2.72;;;1.20;;
41275;SDS011;27010;47.718;12.912;2022-08-01T14:53:39;6.05;;;1.00;;
41275;SDS011;27010;47.718;12.912;2022-08-01T14:56:53;2.75;;;1.05;;
41275;SDS011;27010;47.718;12.912;2022-08-01T14:59:55;2.00;;;0.80;;
41275;SDS011;27010;47.718;12.912;2022-08-01T15:02:57;1.40;;;1.08;;
41275;SDS011;27010;47.718;12.912;2022-08-01T15:05:59;2.15;;;1.00;;
41275;SDS011;27010;47.718;12.912;2022-08-01T15:09:02;1.73;;;1.00;;
41275;SDS011;27010;47.718;12.912;2022-08-01T15:12:10;1.27;;;0.95;;
41275;SDS011;27010;47.718;12.912;2022-08-01T15:15:12;1.38;;;1.02;;
41275;SDS011;27010;47.718;12.912;2022-08-01T15:18:14;1.20;;;0.80;;
41275;SDS011;27010;47.718;12.912;2022-08-01T15:21:16;2.50;;;0.95;;
41275;SDS011;27010;47.718;12.912;2022-08-01T15:24:38;1.65;;;1.05;;
41275;SDS011;27010;47.718;12.912;2022-08-01T15:27:40;2.60;;;1.05;;
41275;SDS011;27010;47.718;12.912;2022-08-01T15:30:43;1.83;;;0.80;;
41275;SDS011;27010;47.718;12.912;2022-08-01T15:33:45;2.22;;;1.08;;
41275;SDS011;27010;47.718;12.912;2022-08-01T15:36:46;2.25;;;1.17;;
41275;SDS011;27010;47.718;12.912;2022-08-01T15:39:50;2.65;;;0.93;;
41275;SDS011;27010;47.718;12.912;2022-08-01T15:42:57;0.82;;;0.65;;
41275;SDS011;27010;47.718;12.912;2022-08-01T15:46:00;3.60;;;1.33;;
41275;SDS011;27010;47.718;12.912;2022-08-01T15:49:03;2.22;;;1.10;;
41275;SDS011;27010;47.718;12.912;2022-08-01T15:52:06;1.63;;;0.98;;
41275;SDS011;27010;47.718;12.912;2022-08-01T15:55:23;3.50;;;1.70;;
41275;SDS011;27010;47.718;12.912;2022-08-01T15:58:25;0.98;;;0.68;;
41275;SDS011;27010;47.718;12.912;2022-08-01T16:01:27;1.23;;;1.13;;
41275;SDS011;27010;47.718;12.912;2022-08-01T16:04:29;1.58;;;1.10;;
41275;SDS011;27010;47.718;12.912;2022-08-01T16:07:31;2.20;;;0.90;;
41275;SDS011;27010;47.718;12.912;2022-08-01T16:10:33;4.45;;;1.20;;
41275;SDS011;27010;47.718;12.912;2022-08-01T16:13:35;2.22;;;0.95;;
41275;SDS011;27010;47.718;12.912;2022-08-01T16:16:37;1.55;;;0.82;;
41275;SDS011;27010;47.718;12.912;2022-08-01T16:19:39;1.20;;;1.10;;
41275;SDS011;27010;47.718;12.912;2022-08-01T16:22:41;2.58;;;1.40;;
41275;SDS011;27010;47.718;12.912;2022-08-01T16:25:44;1.25;;;1.10;;
41275;SDS011;27010;47.718;12.912;2022-08-01T16:28:46;1.30;;;1.20;;
41275;SDS011;27010;47.718;12.912;2022-08-01T16:31:52;2.47;;;1.38;;
41275;SDS011;27010;47.718;12.912;2022-08-01T16:35:14;2.33;;;0.90;;
41275;SDS011;27010;47.718;12.912;2022-08-01T16:38:17;3.92;;;0.98;;
41275;SDS011;27010;47.718;12.912;2022-08-01T16:41:22;1.42;;;1.10;;
41275;SDS011;27010;47.718;12.912;2022-08-01T16:44:24;1.15;;;0.90;;
41275;SDS011;27010;47.718;12.912;2022-08-01T16:47:34;3.53;;;1.00;;
41275;SDS011;27010;47.718;12.912;2022-08-01T16:50:36;2.08;;;1.00;;
41275;SDS011;27010;47.718;12.912;2022-08-01T16:53:38;4.05;;;1.13;;
41275;SDS011;27010;47.718;12.912;2022-08-01T16:56:40;4.32;;;1.35;;
41275;SDS011;27010;47.718;12.912;2022-08-01T16:59:42;1.25;;;1.02;;
41275;SDS011;27010;47.718;12.912;2022-08-01T17:02:44;3.30;;;1.33;;
41275;SDS011;27010;47.718;12.912;2022-08-01T17:05:47;1.48;;;1.30;;
41275;SDS011;27010;47.718;12.912;2022-08-01T17:08:49;4.47;;;1.45;;
41275;SDS011;27010;47.718;12.912;2022-08-01T17:11:51;2.00;;;1.10;;
41275;SDS011;27010;47.718;12.912;2022-08-01T17:14:53;1.70;;;1.25;;
41275;SDS011;27010;47.718;12.912;2022-08-01T17:17:55;2.05;;;1.30;;
41275;SDS011;27010;47.718;12.912;2022-08-01T17:20:57;2.85;;;1.30;;
41275;SDS011;27010;47.718;12.912;2022-08-01T17:24:00;2.42;;;1.35;;
41275;SDS011;27010;47.718;12.912;2022-08-01T17:27:02;1.20;;;1.10;;
41275;SDS011;27010;47.718;12.912;2022-08-01T17:30:09;3.80;;;1.27;;
41275;SDS011;27010;47.718;12.912;2022-08-01T17:33:14;1.70;;;1.02;;
41275;SDS011;27010;47.718;12.912;2022-08-01T17:36:16;2.13;;;1.05;;
41275;SDS011;27010;47.718;12.912;2022-08-01T17:39:19;7.97;;;2.17;;
41275;SDS011;27010;47.718;12.912;2022-08-01T17:42:39;3.90;;;1.25;;
41275;SDS011;27010;47.718;12.912;2022-08-01T17:45:42;2.05;;;1.33;;
41275;SDS011;27010;47.718;12.912;2022-08-01T17:48:51;5.47;;;1.35;;
41275;SDS011;27010;47.718;12.912;2022-08-01T17:51:53;2.15;;;1.30;;
41275;SDS011;27010;47.718;12.912;2022-08-01T17:54:56;3.08;;;1.45;;
41275;SDS011;27010;47.718;12.912;2022-08-01T17:57:58;1.23;;;1.00;;
41275;SDS011;27010;47.718;12.912;2022-08-01T18:01:11;5.47;;;2.20;;
41275;SDS011;27010;47.718;12.912;2022-08-01T18:04:15;3.80;;;1.60;;
41275;SDS011;27010;47.718;12.912;2022-08-01T18:07:28;3.15;;;1.33;;
41275;SDS011;27010;47.718;12.912;2022-08-01T18:10:50;3.72;;;1.20;;
41275;SDS011;27010;47.718;12.912;2022-08-01T18:13:52;3.33;;;1.38;;
41275;SDS011;27010;47.718;12.912;2022-08-01T18:16:54;4.05;;;1.13;;
41275;SDS011;27010;47.718;12.912;2022-08-01T18:19:56;2.95;;;1.25;;
41275;SDS011;27010;47.718;12.912;2022-08-01T18:22:58;2.28;;;1.05;;
41275;SDS011;27010;47.718;12.912;2022-08-01T18:26:01;2.33;;;1.27;;
41275;SDS011;27010;47.718;12.912;2022-08-01T18:29:03;3.50;;;1.58;;
41275;SDS011;27010;47.718;12.912;2022-08-01T18:32:08;3.78;;;1.25;;
41275;SDS011;27010;47.718;12.912;2022-08-01T18:35:09;2.42;;;1.63;;
41275;SDS011;27010;47.718;12.912;2022-08-01T18:38:14;2.75;;;1.05;;
41275;SDS011;27010;47.718;12.912;2022-08-01T18:41:17;4.45;;;1.65;;
41275;SDS011;27010;47.718;12.912;2022-08-01T18:44:19;1.38;;;1.13;;
41275;SDS011;27010;47.718;12.912;2022-08-01T18:47:23;4.03;;;1.23;;
41275;SDS011;27010;47.718;12.912;2022-08-01T18:50:25;1.63;;;1.30;;
41275;SDS011;27010;47.718;12.912;2022-08-01T18:53:27;2.22;;;1.05;;
41275;SDS011;27010;47.718;12.912;2022-08-01T18:56:29;2.47;;;1.40;;
41275;SDS011;27010;47.718;12.912;2022-08-01T18:59:31;8.15;;;1.45;;
41275;SDS011;27010;47.718;12.912;2022-08-01T19:02:33;2.08;;;1.40;;